Weather at William P Hobby Airport

Public forecast

Using degrees Fahrenheit for public forecast. Weather courtesy of forecast.io.

Current aviation weather report (METAR) for William P Hobby Airport

2024/07/16 19:53 (retrieved 40 minutes ago)

KHOU 161953Z 18006KT 10SM SCT035 SCT200 33/24 A2996 RMK AO2 SLP148 T03330239

Aviation forecast (TAF) for William P Hobby Airport

2024/07/16 18:30 (retrieved 2 hours ago)

TAF KHOU 161726Z 1618/1718 19008KT P6SM VCSH SCT035 FM162100 16011KT P6SM SCT040 FM170400 19005KT P6SM FEW020 FM171500 22008KT P6SM SCT030 SCT250